Latest Weather Observations for Melville Water

IDW60901

Issued at 9:21 am WST Friday 14 May 2021 (issued every 10 minutes, with the page automatically refreshed every 10 minutes)

About weather observations | Map of Perth area stations | Latest observations for Perth area | Other Formats
Station Details ID: 009091 Name: INNER DOLPHIN PYLON Lat: -31.99 Lon: 115.83 Height: 0.0 m
Data from the previous 72 hours. | See also: Recent months at Melville Water
Date/Time
WST
Temp
°C
App
Temp
°C
Dew
Point
°C
Rel
Hum
%
Delta-T
°C
Wind Press
QNH
hPa
Press
MSL
hPa
Rain since
9am
mm
Dir  Spd
km/h
Gust
km/h
Spd
kts
Gust
kts
14/09:00am - - - - - ENE 28 39 15 21 - - -
14/08:30am - - - - - ENE 22 32 12 17 - - -
14/08:00am - - - - - ENE 19 26 10 14 - - -
14/07:30am - - - - - ENE 24 32 13 17 - - -
14/07:00am - - - - - ENE 30 39 16 21 - - -
14/06:30am - - - - - ENE 24 32 13 17 - - -
14/06:00am - - - - - ENE 19 26 10 14 - - -
14/05:30am - - - - - ENE 20 30 11 16 - - -
14/05:00am - - - - - E 22 30 12 16 - - -
14/04:30am - - - - - E 20 32 11 17 - - -
14/04:00am - - - - - E 19 20 10 11 - - -
14/03:30am - - - - - E 22 32 12 17 - - -
14/03:00am - - - - - E 20 28 11 15 - - -
14/02:30am - - - - - E 20 28 11 15 - - -
14/02:00am - - - - - E 20 28 11 15 - - -
14/01:30am - - - - - E 24 32 13 17 - - -
14/01:00am - - - - - E 24 33 13 18 - - -
14/12:30am - - - - - E 26 37 14 20 - - -
14/12:00am - - - - - E 24 32 13 17 - - -
 
Date/Time
WST
Temp
°C
App
Temp
°C
Dew
Point
°C
Rel
Hum
%
Delta-T
°C
Wind Press
QNH
hPa
Press
MSL
hPa
Rain since
9am
mm
Dir  Spd
km/h
Gust
km/h
Spd
kts
Gust
kts
13/11:30pm - - - - - E 28 37 15 20 - - -
13/11:00pm - - - - - E 28 35 15 19 - - -
13/10:30pm - - - - - E 28 41 15 22 - - -
13/10:00pm - - - - - E 26 37 14 20 - - -
13/09:30pm - - - - - E 28 39 15 21 - - -
13/09:00pm - - - - - E 32 44 17 24 - - -
13/08:30pm - - - - - E 30 37 16 20 - - -
13/08:15pm - - - - - E 30 48 16 26 - - -
13/08:00pm - - - - - E 32 48 17 26 - - -
13/07:30pm - - - - - E 30 41 16 22 - - -
13/07:00pm - - - - - E 28 39 15 21 - - -
13/06:30pm - - - - - E 24 32 13 17 - - -
13/06:00pm - - - - - E 22 30 12 16 - - -
13/05:54pm - - - - - E 28 46 15 25 - - -
13/05:30pm - - - - - E 30 41 16 22 - - -
13/05:00pm - - - - - E 32 39 17 21 - - -
13/04:30pm - - - - - E 32 39 17 21 - - -
13/04:00pm - - - - - E 28 35 15 19 - - -
13/03:30pm - - - - - ENE 32 43 17 23 - - -
13/03:00pm - - - - - E 28 37 15 20 - - -
13/02:30pm - - - - - E 30 37 16 20 - - -
13/02:00pm - - - - - E 28 35 15 19 - - -
13/01:30pm - - - - - E 26 35 14 19 - - -
13/01:00pm - - - - - ENE 24 32 13 17 - - -
13/12:30pm - - - - - ENE 28 35 15 19 - - -
13/12:00pm - - - - - E 24 33 13 18 - - -
13/11:30am - - - - - E 32 43 17 23 - - -
13/11:00am - - - - - E 30 41 16 22 - - -
13/10:30am - - - - - E 30 43 16 23 - - -
13/10:00am - - - - - E 32 48 17 26 - - -
13/09:30am - - - - - E 39 50 21 27 - - -
13/09:00am - - - - - E 32 44 17 24 - - -
13/08:30am - - - - - E 32 46 17 25 - - -
13/08:19am - - - - - E 30 50 16 27 - - -
13/08:00am - - - - - E 28 39 15 21 - - -
13/07:30am - - - - - E 28 39 15 21 - - -
13/07:00am - - - - - E 26 39 14 21 - - -
13/06:30am - - - - - E 28 35 15 19 - - -
13/06:00am - - - - - E 28 37 15 20 - - -
13/05:30am - - - - - ESE 30 41 16 22 - - -
13/05:00am - - - - - E 35 46 19 25 - - -
13/04:30am - - - - - ESE 26 37 14 20 - - -
13/04:00am - - - - - ESE 24 35 13 19 - - -
13/03:30am - - - - - ESE 26 33 14 18 - - -
13/03:00am - - - - - ESE 32 44 17 24 - - -
13/02:30am - - - - - ESE 28 37 15 20 - - -
13/02:00am - - - - - ESE 24 32 13 17 - - -
13/01:30am - - - - - ESE 24 33 13 18 - - -
13/01:00am - - - - - ESE 28 35 15 19 - - -
13/12:30am - - - - - ESE 24 33 13 18 - - -
13/12:00am - - - - - ESE 30 39 16 21 - - -
 
Date/Time
WST
Temp
°C
App
Temp
°C
Dew
Point
°C
Rel
Hum
%
Delta-T
°C
Wind Press
QNH
hPa
Press
MSL
hPa
Rain since
9am
mm
Dir  Spd
km/h
Gust
km/h
Spd
kts
Gust
kts
12/11:30pm - - - - - ESE 24 32 13 17 - - -
12/11:00pm - - - - - ESE 30 37 16 20 - - -
12/10:30pm - - - - - ESE 30 41 16 22 - - -
12/10:00pm - - - - - ESE 24 35 13 19 - - -
12/09:30pm - - - - - ESE 26 37 14 20 - - -
12/09:00pm - - - - - ESE 33 46 18 25 - - -
12/08:30pm - - - - - ESE 24 33 13 18 - - -
12/08:00pm - - - - - ESE 33 43 18 23 - - -
12/07:30pm - - - - - ESE 28 37 15 20 - - -
12/07:00pm - - - - - ESE 28 37 15 20 - - -
12/06:30pm - - - - - ESE 30 35 16 19 - - -
12/06:00pm - - - - - SE 32 37 17 20 - - -
12/05:30pm - - - - - SE 30 39 16 21 - - -
12/05:00pm - - - - - SE 35 44 19 24 - - -
12/04:30pm - - - - - SE 33 43 18 23 - - -
12/04:00pm - - - - - SE 30 43 16 23 - - -
12/03:30pm - - - - - SE 33 43 18 23 - - -
12/03:00pm - - - - - SE 32 39 17 21 - - -
12/02:30pm - - - - - SE 30 35 16 19 - - -
12/02:00pm - - - - - SE 24 32 13 17 - - -
12/01:30pm - - - - - ESE 35 44 19 24 - - -
12/01:00pm - - - - - SSE 30 41 16 22 - - -
12/12:30pm - - - - - SSE 26 33 14 18 - - -
12/12:00pm - - - - - SE 19 24 10 13 - - -
12/11:30am - - - - - NNE 4 7 2 4 - - -
12/11:00am - - - - - SSW 4 4 2 2 - - -
12/10:30am - - - - - CALM 0 2 0 1 - - -
12/10:00am - - - - - S 2 4 1 2 - - -
12/09:30am - - - - - SW 2 2 1 1 - - -
12/09:00am - - - - - E 2 4 1 2 - - -
12/08:30am - - - - - ENE 2 4 1 2 - - -
12/08:00am - - - - - E 6 6 3 3 - - -
12/07:30am - - - - - E 9 11 5 6 - - -
12/07:00am - - - - - ENE 6 6 3 3 - - -
12/06:30am - - - - - E 7 9 4 5 - - -
12/06:00am - - - - - SSE 6 9 3 5 - - -
12/05:30am - - - - - SE 6 7 3 4 - - -
12/05:00am - - - - - ENE 6 7 3 4 - - -
12/04:30am - - - - - NE 6 9 3 5 - - -
12/04:00am - - - - - ENE 7 9 4 5 - - -
12/03:30am - - - - - E 4 4 2 2 - - -
12/03:00am - - - - - ENE 6 6 3 3 - - -
12/02:30am - - - - - NE 4 4 2 2 - - -
12/02:00am - - - - - E 4 4 2 2 - - -
12/01:30am - - - - - NNE 2 4 1 2 - - -
12/01:00am - - - - - E 4 6 2 3 - - -
12/12:30am - - - - - CALM 0 2 0 1 - - -
12/12:00am - - - - - NE 4 6 2 3 - - -
 
Date/Time
WST
Temp
°C
App
Temp
°C
Dew
Point
°C
Rel
Hum
%
Delta-T
°C
Wind Press
QNH
hPa
Press
MSL
hPa
Rain since
9am
mm
Dir  Spd
km/h
Gust
km/h
Spd
kts
Gust
kts
11/11:30pm - - - - - NE 4 7 2 4 - - -
11/11:00pm - - - - - NE 6 7 3 4 - - -
11/10:30pm - - - - - NNE 6 7 3 4 - - -
11/10:00pm - - - - - NNE 7 9 4 5 - - -
11/09:30pm - - - - - NNE 4 6 2 3 - - -
11/09:00pm - - - - - N 4 6 2 3 - - -
11/08:30pm - - - - - NNW 2 2 1 1 - - -
11/08:00pm - - - - - ENE 6 7 3 4 - - -
11/07:30pm - - - - - ESE 7 9 4 5 - - -
11/07:00pm - - - - - ESE 4 6 2 3 - - -
11/06:30pm - - - - - NW 7 9 4 5 - - -
11/06:00pm - - - - - NW 7 9 4 5 - - -
11/05:30pm - - - - - NW 9 13 5 7 - - -
11/05:00pm - - - - - WNW 11 15 6 8 - - -
11/04:30pm - - - - - WNW 17 26 9 14 - - -
11/04:00pm - - - - - NW 17 28 9 15 - - -
11/03:30pm - - - - - NW 17 24 9 13 - - -
11/03:00pm - - - - - NW 19 28 10 15 - - -
11/02:30pm - - - - - NW 20 32 11 17 - - -
11/02:00pm - - - - - NW 22 33 12 18 - - -
11/01:30pm - - - - - NNW 15 22 8 12 - - -
11/01:00pm - - - - - N 20 32 11 17 - - -
11/12:30pm - - - - - N 22 30 12 16 - - -
11/12:00pm - - - - - NNE 20 26 11 14 - - -
11/11:30am - - - - - NE 20 28 11 15 - - -
11/11:00am - - - - - NNE 20 30 11 16 - - -
11/10:30am - - - - - NNE 24 33 13 18 - - -
11/10:00am - - - - - NNE 22 33 12 18 - - -
11/09:30am - - - - - NE 24 33 13 18 - - -

Latest Capital City Observations: Canberra | Sydney | Melbourne | Brisbane | Adelaide | Perth | Hobart | Darwin

Other formats

Comma delimited format used in spreadsheet applications
http://www.bom.gov.au/fwo/IDW60901/IDW60901.95620.axf

JavaScript Object Notation format (JSON) in row-major order
http://www.bom.gov.au/fwo/IDW60901/IDW60901.95620.json

Data quality

Most of these data are generated automatically and are frequently updated. Quality checks on data are not normally performed. It is possible for incorrect values to appear. Refer to information at About Latest Weather Observations and please check the disclaimer before using these data.